Edgewater, Ohio
Current Conditions -  °F | °C
As of 1:51 PM on Thursday 30 Oct 2014 (Local Time) from KCLE Reporting Station
Broken Clouds Broken Clouds  
Wind Chill: 43°   Ceiling: 4400
Heat Index: 48°   Visibility: 10mi
Dew Point: 37°   Wind: 13mph
Humidity: 66%   Direction: 310°NW
Pressure: 30.12"   Gusts: NA
Location:  41.4825°N, 81.8004°W
Report Text: KCLE 301751Z 31011KT 10SM SCT032 BKN044 BKN250 09/03 A3012 RMK AO2 SLP204 60000 10117 20078 T00890028 58010
Loading
Personal Weather Stations






























Interactive Weather Map
Tropical Storm Tracking
New forecast layout! Learn more

10-Day Weather Forecast

Advertisements
Track Severe Weather on mobile